Time;durP1;ratioP1;P1;durP2;ratioP2;P2;SDS_P1;SDS_P2;PMS_P1;PMS_P2;Temp;Humidity;BMP_temperature;BMP_pressure;BME280_temperature;BME280_humidity;BME280_pressure;Samples;Min_cycle;Max_cycle;Signal;HPM_P1;HPM_P2
2022/12/25 00:08:17;;;;;;;26.07;10.20;;;9.90;99.90;;;;;;20915766;28;20297;-72
2022/12/25 00:18:19;;;;;;;22.40;10.00;;;;;;;;;;20915306;28;20213;-70
2022/12/25 00:28:22;;;;;;;21.37;10.80;;;9.90;99.90;;;;;;20914945;28;20296;-72
2022/12/25 00:38:25;;;;;;;18.17;8.97;;;10.00;99.90;;;;;;20914236;28;20659;-69
2022/12/25 00:48:28;;;;;;;20.47;9.43;;;10.10;99.90;;;;;;20913224;28;20238;-71
2022/12/25 00:58:32;;;;;;;17.90;9.00;;;10.10;99.90;;;;;;20913208;28;20214;-71
2022/12/25 01:08:35;;;;;;;21.13;8.93;;;10.10;99.90;;;;;;20912211;28;20245;-71
2022/12/25 01:18:37;;;;;;;20.30;8.63;;;10.20;99.90;;;;;;20912184;28;20265;-70
2022/12/25 01:28:40;;;;;;;21.50;7.93;;;10.10;99.90;;;;;;20912024;28;20597;-71
2022/12/25 01:38:42;;;;;;;16.70;8.00;;;10.20;99.90;;;;;;20911180;28;20211;-72
2022/12/25 01:48:44;;;;;;;19.53;7.77;;;10.00;99.90;;;;;;20911044;28;20282;-72
2022/12/25 01:58:46;;;;;;;18.13;7.40;;;10.00;99.90;;;;;;20910438;28;20253;-72
2022/12/25 02:08:48;;;;;;;15.20;7.70;;;9.90;99.90;;;;;;20910268;28;20600;-72
2022/12/25 02:18:59;;;;;;;14.93;6.60;;;9.90;99.90;;;;;;20922753;28;20260;-72
2022/12/25 02:29:36;;;;;;;16.43;5.67;;;9.90;99.90;;;;;;20923934;28;20242;-72
2022/12/25 02:40:05;;;;;;;11.87;5.10;;;9.80;99.90;;;;;;20923726;28;20300;-72
2022/12/25 03:32:05;;;;;;;15.70;4.60;;;9.00;99.90;;;;;;20919101;28;20806;-70
2022/12/25 04:44:15;;;;;;;8.93;4.47;;;8.80;99.90;;;;;;20913668;28;20241;-73
2022/12/25 04:54:17;;;;;;;8.53;4.53;;;8.80;99.90;;;;;;20913684;28;20655;-71
2022/12/25 05:04:18;;;;;;;11.10;4.97;;;8.80;99.90;;;;;;20912254;28;20283;-72
2022/12/25 05:14:20;;;;;;;11.67;5.03;;;8.90;99.90;;;;;;20912267;28;20209;-71
2022/12/25 05:24:25;;;;;;;12.30;4.77;;;8.90;99.90;;;;;;20912179;28;20243;-72
2022/12/25 05:34:27;;;;;;;11.53;4.70;;;;;;;;;;20911514;28;20214;-72
2022/12/25 05:44:29;;;;;;;9.53;4.63;;;9.00;99.90;;;;;;20910735;28;20236;-72
2022/12/25 05:54:30;;;;;;;11.20;4.60;;;9.00;99.90;;;;;;20925697;28;20266;-72
2022/12/25 06:04:32;;;;;;;10.17;4.60;;;9.00;99.90;;;;;;20925636;28;20238;-69
2022/12/25 06:14:34;;;;;;;8.70;4.43;;;8.90;99.90;;;;;;20925161;28;20722;-68
2022/12/25 06:24:37;;;;;;;10.03;5.10;;;9.00;99.90;;;;;;20924743;28;20279;-72
2022/12/25 06:34:39;;;;;;;12.80;4.93;;;9.00;99.90;;;;;;20923889;28;20714;-73
2022/12/25 06:44:41;;;;;;;12.57;5.43;;;;;;;;;;20923217;28;20241;-73
2022/12/25 06:54:42;;;;;;;9.43;5.23;;;9.00;99.90;;;;;;20922983;28;20214;-72
2022/12/25 07:04:44;;;;;;;13.97;5.13;;;9.00;99.90;;;;;;20920552;28;20267;-69
2022/12/25 07:14:48;;;;;;;10.00;4.83;;;9.10;99.90;;;;;;20920575;28;20209;-69
2022/12/25 07:24:50;;;;;;;6.47;4.50;;;9.00;99.90;;;;;;20920169;28;20323;-70
2022/12/25 07:34:52;;;;;;;8.50;5.17;;;8.90;99.90;;;;;;20919006;28;20211;-69
2022/12/25 07:44:54;;;;;;;11.43;5.60;;;8.80;99.90;;;;;;20918057;28;20227;-71
2022/12/25 07:54:56;;;;;;;14.77;5.77;;;;;;;;;;20917992;28;20210;-72
2022/12/25 08:04:58;;;;;;;8.40;4.93;;;9.10;99.90;;;;;;20916237;28;20241;-70
2022/12/25 08:14:59;;;;;;;8.27;5.33;;;9.10;99.90;;;;;;20915137;28;20295;-70
2022/12/25 08:25:01;;;;;;;13.47;6.10;;;9.30;99.90;;;;;;20915463;28;20605;-71
2022/12/25 08:35:03;;;;;;;8.47;5.50;;;9.90;99.90;;;;;;20914402;28;20207;-69
2022/12/25 08:45:05;;;;;;;15.37;6.60;;;9.60;99.90;;;;;;20913674;28;20236;-69
2022/12/25 08:55:07;;;;;;;13.40;5.63;;;9.80;99.90;;;;;;20913642;28;20217;-69
2022/12/25 09:05:10;;;;;;;8.67;4.70;;;9.90;99.90;;;;;;20912535;28;20705;-69
2022/12/25 09:15:12;;;;;;;7.97;5.33;;;9.90;99.90;;;;;;20912181;28;20267;-69
2022/12/25 09:25:14;;;;;;;7.33;5.60;;;10.00;99.90;;;;;;20923305;28;20263;-70
2022/12/25 09:35:17;;;;;;;9.60;6.27;;;10.00;99.90;;;;;;20928408;28;20571;-70
2022/12/25 09:45:31;;;;;;;10.67;6.10;;;10.10;99.90;;;;;;20927842;28;20300;-70
2022/12/25 09:55:39;;;;;;;9.40;6.87;;;10.20;99.90;;;;;;20930633;28;20261;-70
2022/12/25 10:05:41;;;;;;;9.20;6.53;;;;;;;;;;20934011;28;20379;-72
2022/12/25 10:15:59;;;;;;;11.10;6.50;;;10.60;99.90;;;;;;20925395;28;20207;-71
2022/12/25 10:26:03;;;;;;;9.00;7.00;;;10.70;99.90;;;;;;20924838;28;20329;-69
2022/12/25 10:36:06;;;;;;;9.57;7.07;;;10.90;99.90;;;;;;20923093;28;20207;-72
2022/12/25 10:46:11;;;;;;;11.97;7.40;;;11.00;99.90;;;;;;20922912;28;20249;-71
2022/12/25 10:56:16;;;;;;;9.60;7.33;;;11.30;99.90;;;;;;20922209;28;20206;-72
2022/12/25 11:06:25;;;;;;;10.20;7.50;;;11.40;99.90;;;;;;20921019;28;20243;-72
2022/12/25 11:21:25;;;;;;;9.90;7.87;;;11.60;99.90;;;;;;20984693;28;20936;-72
2022/12/25 11:31:39;;;;;;;10.50;7.60;;;11.80;99.90;;;;;;20983746;28;20227;-71
2022/12/25 11:41:42;;;;;;;10.97;7.77;;;11.80;99.90;;;;;;20983373;28;20207;-71
2022/12/25 11:51:48;;;;;;;9.90;7.23;;;11.90;99.90;;;;;;20981921;28;20282;-70
2022/12/25 12:02:03;;;;;;;9.60;7.87;;;12.00;99.90;;;;;;20981046;28;20620;-69
2022/12/25 12:12:27;;;;;;;8.43;7.43;;;12.00;99.90;;;;;;20979886;28;20248;-72
2022/12/25 12:22:29;;;;;;;10.47;7.70;;;12.10;99.90;;;;;;20979467;28;20740;-72
2022/12/25 12:32:44;;;;;;;9.30;6.73;;;12.20;99.90;;;;;;20925084;28;20239;-72
2022/12/25 12:42:49;;;;;;;5.87;5.23;;;12.30;99.90;;;;;;20923395;28;20200;-71
2022/12/25 12:52:51;;;;;;;6.57;5.43;;;12.50;99.90;;;;;;20922502;28;20699;-73
2022/12/25 13:03:26;;;;;;;9.53;5.13;;;12.60;99.90;;;;;;20921721;28;20576;-73
2022/12/25 13:13:35;;;;;;;7.57;5.13;;;12.60;99.90;;;;;;20920700;28;20239;-72
2022/12/25 13:23:37;;;;;;;6.53;4.83;;;12.50;99.90;;;;;;20921360;28;20271;-72
2022/12/25 13:33:43;;;;;;;8.33;5.07;;;12.50;99.90;;;;;;20919286;28;20569;-72
2022/12/25 13:43:47;;;;;;;7.00;4.80;;;12.60;99.90;;;;;;20917455;28;20203;-72
2022/12/25 13:53:49;;;;;;;9.80;4.83;;;12.60;99.90;;;;;;20918119;28;20235;-72
2022/12/25 14:03:52;;;;;;;6.10;4.53;;;12.50;99.90;;;;;;20916627;28;20212;-72
2022/12/25 14:13:58;;;;;;;7.57;4.23;;;12.50;99.90;;;;;;20915936;28;20242;-70
2022/12/25 14:24:00;;;;;;;7.97;4.60;;;12.50;99.90;;;;;;20915704;28;20204;-70
2022/12/25 14:34:06;;;;;;;6.57;4.90;;;12.40;99.90;;;;;;20914409;28;20244;-72
2022/12/25 14:44:37;;;;;;;6.70;4.80;;;12.30;99.90;;;;;;20913811;28;20210;-71
2022/12/25 14:54:44;;;;;;;7.23;5.60;;;12.20;99.90;;;;;;20912162;28;20231;-72
2022/12/25 15:04:46;;;;;;;13.20;7.57;;;12.00;99.90;;;;;;20912759;28;20257;-72
2022/12/25 15:14:48;;;;;;;9.50;6.90;;;11.90;99.90;;;;;;20912048;28;20243;-72
2022/12/25 15:24:50;;;;;;;8.50;6.60;;;11.80;99.90;;;;;;20912514;28;20204;-72
2022/12/25 15:34:59;;;;;;;10.87;7.73;;;11.70;99.90;;;;;;20911536;28;20318;-71
2022/12/25 15:45:01;;;;;;;13.37;9.40;;;;;;;;;;20911247;28;20211;-72
2022/12/25 15:55:03;;;;;;;13.37;9.60;;;11.50;99.90;;;;;;20911089;28;20246;-71
2022/12/25 16:05:06;;;;;;;17.20;11.40;;;11.40;99.90;;;;;;20920981;28;20211;-72
2022/12/25 16:15:12;;;;;;;14.23;10.53;;;11.30;99.90;;;;;;20925182;28;20279;-72
2022/12/25 16:25:17;;;;;;;13.57;9.50;;;11.20;99.90;;;;;;20924874;28;20207;-72
2022/12/25 16:35:19;;;;;;;14.80;9.20;;;11.00;99.90;;;;;;20924285;28;20246;-72
2022/12/25 16:45:21;;;;;;;17.23;8.10;;;10.90;99.90;;;;;;20930535;28;20686;-72
2022/12/25 16:55:23;;;;;;;14.53;9.33;;;10.90;99.90;;;;;;20922788;28;20234;-72
2022/12/25 17:05:32;;;;;;;16.07;8.50;;;10.80;99.90;;;;;;20920949;28;20206;-71
2022/12/25 17:15:34;;;;;;;14.77;9.80;;;10.70;99.90;;;;;;20920353;28;20235;-72
2022/12/25 17:25:35;;;;;;;19.97;13.60;;;10.60;99.90;;;;;;20920318;28;20257;-70
2022/12/25 17:35:37;;;;;;;21.80;14.83;;;10.50;99.90;;;;;;20919342;28;20285;-70
2022/12/25 17:45:39;;;;;;;19.13;13.40;;;10.40;99.90;;;;;;20918445;28;20301;-70
2022/12/25 17:55:41;;;;;;;18.57;13.17;;;10.30;99.90;;;;;;20917786;28;20235;-69
2022/12/25 18:05:43;;;;;;;19.60;12.73;;;10.20;99.90;;;;;;20916838;28;20669;-70
2022/12/25 18:15:45;;;;;;;20.17;12.93;;;10.00;99.90;;;;;;20915690;28;20275;-70
2022/12/25 18:25:46;;;;;;;20.23;13.13;;;9.90;99.90;;;;;;20914921;28;20276;-70
2022/12/25 18:37:37;;;;;;;21.23;13.70;;;9.80;99.90;;;;;;21068511;27;20556;-68
2022/12/25 18:47:41;;;;;;;21.37;14.03;;;9.70;99.90;;;;;;21067231;28;20545;-69
2022/12/25 19:04:15;;;;;;;33.33;19.17;;;9.50;99.90;;;;;;20984598;28;20567;-68
2022/12/25 19:14:16;;;;;;;24.50;16.67;;;9.40;99.90;;;;;;20983698;28;20661;-70
2022/12/25 19:24:18;;;;;;;26.10;16.13;;;;;;;;;;20983564;28;20257;-68
2022/12/25 19:34:20;;;;;;;24.60;15.57;;;9.30;99.90;;;;;;20983359;28;20230;-71
2022/12/25 19:44:22;;;;;;;26.50;15.80;;;;;;;;;;20981494;28;20232;-71
2022/12/25 19:54:24;;;;;;;27.43;15.70;;;;;;;;;;20980460;28;20208;-72
2022/12/25 20:04:26;;;;;;;21.90;15.13;;;9.10;99.90;;;;;;20979560;28;20212;-71
2022/12/25 20:14:28;;;;;;;22.60;15.40;;;9.10;99.90;;;;;;20929333;28;20208;-71
2022/12/25 20:24:29;;;;;;;27.07;18.07;;;9.00;99.90;;;;;;20923622;28;20215;-72
2022/12/25 20:34:31;;;;;;;27.23;16.43;;;;;;;;;;20922574;28;20215;-71
2022/12/25 20:44:33;;;;;;;36.47;22.13;;;9.10;99.90;;;;;;20921628;28;20238;-72
2022/12/25 20:54:35;;;;;;;30.33;20.10;;;;;;;;;;20921004;28;20693;-72
2022/12/25 21:04:37;;;;;;;26.70;17.50;;;;;;;;;;20920183;28;20602;-72
2022/12/25 21:14:41;;;;;;;30.33;19.50;;;9.20;99.90;;;;;;20919182;28;20269;-72
2022/12/25 21:24:43;;;;;;;25.27;16.30;;;9.30;99.90;;;;;;20918002;28;20543;-71
2022/12/25 21:34:44;;;;;;;18.27;12.43;;;9.40;99.90;;;;;;20917959;28;20230;-72
2022/12/25 21:44:47;;;;;;;8.60;6.60;;;9.80;99.90;;;;;;20916969;28;20209;-71
2022/12/25 22:04:07;;;;;;;8.33;4.33;;;10.80;99.90;;;;;;21152711;27;20911;-71
2022/12/25 22:24:56;;;;;;;5.67;3.57;;;11.40;99.90;;;;;;21066694;28;20649;-71
2022/12/25 22:34:59;;;;;;;5.20;3.53;;;11.60;99.90;;;;;;21065464;28;20227;-71
2022/12/25 22:45:01;;;;;;;6.87;3.70;;;11.70;99.90;;;;;;21065058;28;20213;-71
2022/12/25 22:55:04;;;;;;;5.73;3.50;;;11.70;99.90;;;;;;21055837;28;20598;-70
2022/12/25 23:05:07;;;;;;;4.93;3.10;;;11.90;99.90;;;;;;20979364;28;20199;-71
2022/12/25 23:15:08;;;;;;;5.27;3.13;;;12.00;99.90;;;;;;20925777;28;20573;-72
2022/12/25 23:39:35;;;;;;;3.90;2.93;;;12.20;99.90;;;;;;21409451;27;20497;-69
2022/12/25 23:49:37;;;;;;;4.20;3.17;;;12.30;99.90;;;;;;21321925;27;20249;-69
2022/12/25 23:59:39;;;;;;;4.97;3.20;;;;;;;;;;21321377;27;20206;-69
